Aérodrome :
LOGIN :

S'inscrire | Disclaimer

   EN    FR    IT 

 










Légende :    VFR   VFR Marginal   IFR   IFR Intensif   IFR Très Intensif
Visi : 
Plafond : 
>= 8 km
>= 3000ft
5 à 8 km
1000 à 3000 ft
1500m à 5 km
500 à 1000 ft
800 à 1500m
200 à 500 ft
< 800m
< 200 ft
Symboles :   Orages  Brouillard  Fortes neiges  Fortes précipitations  Vent > 20 kt
SIGMETs :   Divers  Orages  Givrage  Turbulence  Onde Orograph.  Cendres Volcan.







- Altitude de l'aérodrome : 29 ft


LIRM - Grazzanise Caserta

DERNIER METAR :
  • 221455Z 23005KT 9999 FEW060 SCT080 20/18 Q1007 RMK OVC BKN150 VIS MIN 9999 WIND THR06 22006KT BLU

METARs EXPIRÉS :
  • 221355Z 07008KT 9999 SCT060 SCT080 20/16 Q1007 RMK OVC BKN150 VIS MIN 9999 WIND THR06 05008KT BLU
  • 221255Z 03002KT 9999 SCT060 SCT080 19/15 Q1008 RMK OVC BKN150 VIS MIN 9999 WIND THR06 29002KT BLU

TAF TAF LIRM
Valide du 22 à 15h jusqu'au 23 à 00h UTC


221400Z 2215/2224 08014KT 9999 SCT050
TEMPO 2215/2218 5000 RA FEW020 BKN025
PROB40
TEMPO 2218/2221 3000 SHRA FEW018CB BKN020
Pas de NOTAMs connus pour ce terrain.
4 SIGMETs publiés pour la FIR Roma (LIRR) :
 
Orages noyés dans la masse
LIRR SIGMET 7 VALID 221605/222005 LIIB
LIRR ROMA FIR EMBD TS FCST WI N3948 E00937 - N3755 E01304 - N3636 E01353 - N3909 E01553 - N4113 E01329 - N4255 E01025 - N3948 E00937 TOP ABV FL350 STNR WKN=
Turbulence forte
LIRR SIGMET 6 VALID 221605/222005 LIIB
LIRR ROMA FIR SEV TURB FCST WI N3900 E00805 - N4250 E01304 - N4122 E01423 - N4107 E01507 - N3859 E01622 - N3626 E01708 - N3628 E01129 - N3728 E01128 - N3900 E00805 SFC/FL120 STNR NC=
Orages noyés dans la masse
LIRR SIGMET 5 VALID 221225/221605 LIIB
LIRR ROMA FIR EMBD TS FCST WI N4213 E01039 - N3844 E00833 - N3727 E01132 - N3625 E01131 - N3804 E01304 - N3845 E01638 - N4112 E01511 - N4123 E01425 - N4251 E01306 - N4327 E01321 - N4338 E01025 - N4213 E01039 TOP ABV FL350 STNR NC=
Turbulence forte
LIRR SIGMET 4 VALID 221205/221605 LIIB
LIRR ROMA FIR SEV TURB FCST WI N3900 E00805 - N4250 E01304 - N4122 E01423 - N4107 E01507 - N3859 E01622 - N3626 E01708 - N3628 E01129 - N3728 E01128 - N3900 E00805 SFC/FL120 STNR NC=



MET'MAP, la Météo Aéronautique d'un coup d'oeil ! - Copyright ORBIFLY Décembre 2007 - Disclaimer

ORBIFLY MET'MAP TEAM :

Programmation & Développement : Alexandra Zaïnal
Conception & Développement : Baudouin d'Aumeries
Co-Programmation & Développement : Marc-Olivier Méhu
Soutien technique & logistique : Manuel Goepfert

Contact : metmap@orbifly.com




SOURCES & CREDITS :

   NOAA